createdAt,value
2023-05-20T00:00:33.781Z,4.47
2023-05-20T00:03:02.228Z,5.60
2023-05-20T00:05:29.991Z,4.20
2023-05-20T00:07:57.945Z,6.13
2023-05-20T00:10:25.956Z,4.60
2023-05-20T00:12:55.088Z,4.70
2023-05-20T00:15:22.806Z,5.37
2023-05-20T00:17:51.006Z,4.10
2023-05-20T00:20:19.006Z,5.67
2023-05-20T00:22:47.080Z,4.37
2023-05-20T00:25:15.465Z,5.13
2023-05-20T00:27:43.895Z,4.20
2023-05-20T00:30:13.709Z,4.67
2023-05-20T00:32:41.711Z,4.83
2023-05-20T00:35:10.955Z,4.63
2023-05-20T00:37:38.951Z,5.17
2023-05-20T00:40:07.415Z,4.80
2023-05-20T00:42:35.124Z,4.03
2023-05-20T00:45:03.307Z,4.30
2023-05-20T00:47:33.729Z,4.40
2023-05-20T00:50:01.883Z,4.73
2023-05-20T00:52:31.517Z,5.27
2023-05-20T00:54:59.811Z,4.33
2023-05-20T00:57:28.144Z,5.27
2023-05-20T00:59:56.717Z,4.60
2023-05-20T01:02:24.954Z,4.90
2023-05-20T01:04:56.952Z,4.60
2023-05-20T01:07:25.517Z,5.10
2023-05-20T01:09:54.361Z,4.97
2023-05-20T01:12:25.234Z,5.23
2023-05-20T01:15:00.309Z,6.13
2023-05-20T01:17:32.975Z,4.53
2023-05-20T01:20:07.350Z,8.03
2023-05-20T01:22:37.933Z,6.63
2023-05-20T01:25:06.062Z,10.17
2023-05-20T01:27:34.362Z,17.03
2023-05-20T01:30:02.090Z,5.83
2023-05-20T01:32:33.053Z,5.33
2023-05-20T01:35:01.681Z,6.37
2023-05-20T01:37:30.479Z,5.40
2023-05-20T01:39:59.914Z,5.90
2023-05-20T01:42:28.517Z,5.10
2023-05-20T01:44:56.342Z,4.87
2023-05-20T01:47:24.352Z,8.17
2023-05-20T01:50:01.452Z,6.30
2023-05-20T01:52:29.830Z,5.50
2023-05-20T01:54:58.232Z,6.03
2023-05-20T01:57:26.585Z,5.33
2023-05-20T01:59:54.392Z,6.07
2023-05-20T02:02:23.175Z,5.97
2023-05-20T02:04:51.685Z,6.23
2023-05-20T02:07:21.001Z,5.70
2023-05-20T02:09:48.969Z,5.60
2023-05-20T02:12:17.530Z,5.10
2023-05-20T02:14:45.841Z,5.33
2023-05-20T02:17:14.572Z,5.93
2023-05-20T02:19:43.087Z,5.17
2023-05-20T02:22:10.905Z,5.70
2023-05-20T02:24:40.386Z,4.80
2023-05-20T02:27:08.644Z,5.67
2023-05-20T02:29:36.883Z,5.30
2023-05-20T02:32:05.094Z,4.83
2023-05-20T02:34:33.425Z,5.50
2023-05-20T02:37:02.818Z,5.60
2023-05-20T02:39:30.939Z,6.83
2023-05-20T02:42:00.163Z,5.30
2023-05-20T02:44:28.705Z,6.50
2023-05-20T02:46:57.396Z,7.33
2023-05-20T02:49:25.381Z,6.23
2023-05-20T02:51:53.829Z,5.97
2023-05-20T02:54:21.662Z,5.00
2023-05-20T02:56:49.415Z,6.63
2023-05-20T02:59:18.962Z,5.00
2023-05-20T03:01:47.317Z,4.70
2023-05-20T03:04:16.059Z,4.83
2023-05-20T03:06:44.474Z,4.93
2023-05-20T03:09:12.732Z,7.70
2023-05-20T03:12:03.275Z,6.10
2023-05-20T03:14:32.801Z,5.47
2023-05-20T03:17:00.628Z,5.20
2023-05-20T03:19:28.639Z,4.90
2023-05-20T03:21:58.226Z,5.10
2023-05-20T03:24:26.353Z,5.17
2023-05-20T03:26:54.126Z,4.80
2023-05-20T03:29:22.403Z,5.40
2023-05-20T03:31:51.941Z,5.33
2023-05-20T03:34:20.350Z,5.00
2023-05-20T03:36:49.297Z,5.37
2023-05-20T03:39:17.319Z,5.70
2023-05-20T03:41:46.540Z,5.20
2023-05-20T03:44:14.388Z,5.70
2023-05-20T03:46:42.908Z,5.00
2023-05-20T03:49:12.395Z,5.50
2023-05-20T03:51:41.981Z,5.43
2023-05-20T03:54:13.426Z,5.73
2023-05-20T03:56:42.212Z,4.90
2023-05-20T03:59:10.716Z,5.10
2023-05-20T04:01:39.360Z,5.73
2023-05-20T04:04:07.513Z,5.73
2023-05-20T04:06:37.181Z,5.03
2023-05-20T04:09:05.300Z,5.33
2023-05-20T04:11:33.301Z,5.20
2023-05-20T04:14:01.156Z,5.20
2023-05-20T04:16:30.657Z,5.07
2023-05-20T04:18:59.407Z,5.17
2023-05-20T04:21:27.393Z,5.77
2023-05-20T04:23:57.474Z,5.87
2023-05-20T04:26:25.561Z,6.07
2023-05-20T04:28:53.577Z,5.93
2023-05-20T04:31:26.852Z,5.50
2023-05-20T04:33:54.996Z,5.20
2023-05-20T04:36:28.646Z,5.33
2023-05-20T04:38:57.988Z,5.37
2023-05-20T04:41:25.919Z,5.00
2023-05-20T04:43:54.036Z,5.47
2023-05-20T04:46:22.385Z,5.30
2023-05-20T04:48:50.808Z,5.23
2023-05-20T04:51:18.894Z,5.73
2023-05-20T04:53:46.793Z,5.30
2023-05-20T04:56:16.046Z,5.10
2023-05-20T04:58:44.382Z,6.77
2023-05-20T05:01:12.104Z,5.97
2023-05-20T05:03:40.558Z,5.13
2023-05-20T05:06:09.353Z,5.20
2023-05-20T05:08:37.638Z,5.93
2023-05-20T05:11:06.337Z,5.40
2023-05-20T05:13:35.762Z,5.57
2023-05-20T05:16:03.956Z,5.33
2023-05-20T05:18:33.347Z,5.83
2023-05-20T05:21:02.060Z,5.67
2023-05-20T05:23:29.936Z,5.53
2023-05-20T05:25:57.982Z,5.80
2023-05-20T05:28:26.476Z,5.70
2023-05-20T05:30:56.979Z,5.57
2023-05-20T05:33:25.075Z,5.20
2023-05-20T05:35:53.674Z,6.33
2023-05-20T05:38:21.702Z,6.20
2023-05-20T05:40:49.513Z,5.90
2023-05-20T05:43:18.401Z,6.20
2023-05-20T05:45:48.856Z,6.70
2023-05-20T05:48:19.047Z,6.60
2023-05-20T05:50:47.497Z,6.17
2023-05-20T05:53:17.393Z,6.50
2023-05-20T05:55:49.016Z,6.30
2023-05-20T05:58:17.678Z,6.93
2023-05-20T06:00:45.695Z,6.60
2023-05-20T06:03:14.045Z,6.20
2023-05-20T06:05:45.881Z,6.50
2023-05-20T06:08:14.486Z,6.90
2023-05-20T06:10:42.553Z,6.57
2023-05-20T06:13:10.678Z,6.63
2023-05-20T06:15:38.438Z,6.23
2023-05-20T06:18:06.688Z,6.73
2023-05-20T06:20:34.834Z,6.90
2023-05-20T06:23:04.676Z,6.60
2023-05-20T06:25:41.044Z,7.20
2023-05-20T06:28:10.685Z,7.27
2023-05-20T06:30:38.607Z,6.97
2023-05-20T06:33:06.785Z,6.97
2023-05-20T06:35:35.968Z,6.40
2023-05-20T06:38:07.271Z,7.30
2023-05-20T06:40:35.103Z,6.97
2023-05-20T06:43:02.871Z,7.00
2023-05-20T06:46:03.092Z,6.57
2023-05-20T06:48:37.760Z,6.40
2023-05-20T06:51:08.277Z,6.60
2023-05-20T06:53:38.409Z,6.60
2023-05-20T06:56:08.188Z,7.07
2023-05-20T06:58:36.051Z,6.57
2023-05-20T07:01:05.622Z,6.87
2023-05-20T07:03:33.864Z,6.83
2023-05-20T07:06:02.690Z,7.30
2023-05-20T07:08:30.577Z,7.83
2023-05-20T07:10:59.735Z,7.00
2023-05-20T07:13:27.677Z,7.33
2023-05-20T07:15:56.460Z,6.90
2023-05-20T07:18:24.884Z,6.27
2023-05-20T07:20:56.854Z,6.90
2023-05-20T07:23:45.426Z,6.83
2023-05-20T07:26:14.940Z,6.90
2023-05-20T07:28:44.017Z,6.90
2023-05-20T07:31:12.564Z,6.87
2023-05-20T07:33:45.488Z,7.40
2023-05-20T07:36:13.787Z,6.60
2023-05-20T07:38:53.084Z,6.23
2023-05-20T07:41:33.631Z,6.30
2023-05-20T07:44:03.085Z,6.47
2023-05-20T07:46:30.918Z,5.97
2023-05-20T07:48:58.952Z,6.80
2023-05-20T07:51:27.252Z,6.00
2023-05-20T07:53:55.479Z,6.67
2023-05-20T07:56:24.160Z,5.77
2023-05-20T07:58:58.388Z,6.80
2023-05-20T08:01:30.172Z,6.70
2023-05-20T08:03:58.696Z,6.30
2023-05-20T08:06:29.423Z,6.27
2023-05-20T08:08:59.336Z,6.03
2023-05-20T08:11:32.277Z,6.50
2023-05-20T08:14:03.318Z,6.20
2023-05-20T08:16:38.475Z,6.63
2023-05-20T08:19:06.813Z,6.27
2023-05-20T08:21:35.339Z,6.57
2023-05-20T08:24:05.347Z,6.20
2023-05-20T08:26:34.013Z,6.43
2023-05-20T08:29:03.442Z,5.97
2023-05-20T08:31:31.346Z,6.43
2023-05-20T08:34:00.822Z,6.33
2023-05-20T08:36:29.020Z,6.43
2023-05-20T08:38:57.117Z,6.10
2023-05-20T08:41:26.260Z,5.90
2023-05-20T08:43:54.669Z,6.70
2023-05-20T08:46:24.659Z,6.50
2023-05-20T08:48:53.496Z,6.57
2023-05-20T08:51:23.764Z,5.63
2023-05-20T08:53:52.133Z,6.37
2023-05-20T08:56:20.369Z,6.40
2023-05-20T08:58:48.396Z,6.20
2023-05-20T09:01:16.710Z,6.30
2023-05-20T09:03:46.348Z,7.50
2023-05-20T09:06:17.924Z,6.63
2023-05-20T09:08:46.886Z,6.67
2023-05-20T09:11:14.833Z,6.73
2023-05-20T09:13:43.236Z,7.17
2023-05-20T09:16:11.299Z,6.80
2023-05-20T09:18:40.007Z,6.77
2023-05-20T09:21:11.730Z,7.40
2023-05-20T09:23:39.601Z,6.40
2023-05-20T09:26:07.608Z,6.83
2023-05-20T09:28:38.566Z,7.17
2023-05-20T09:31:06.844Z,7.40
2023-05-20T09:33:35.667Z,8.20
2023-05-20T09:36:05.187Z,8.30
2023-05-20T09:38:38.158Z,8.00
2023-05-20T09:41:09.544Z,7.57
2023-05-20T09:43:37.445Z,8.40
2023-05-20T09:46:05.564Z,8.40
2023-05-20T09:48:34.509Z,9.00
2023-05-20T09:51:02.678Z,8.93
2023-05-20T09:53:31.335Z,8.47
2023-05-20T09:56:00.922Z,9.50
2023-05-20T09:58:30.153Z,9.53
2023-05-20T10:00:58.334Z,9.30
2023-05-20T10:03:28.391Z,10.03
2023-05-20T10:06:02.856Z,9.30
2023-05-20T10:08:40.693Z,9.90
2023-05-20T10:11:14.802Z,10.70
2023-05-20T10:13:54.701Z,9.57
2023-05-20T10:16:30.141Z,9.97
2023-05-20T10:19:01.464Z,9.30
2023-05-20T10:21:29.540Z,9.70
2023-05-20T10:24:06.586Z,10.20
2023-05-20T10:26:38.234Z,11.00
2023-05-20T10:29:16.383Z,10.47
2023-05-20T10:31:49.693Z,8.77
2023-05-20T10:34:18.975Z,10.83
2023-05-20T10:36:48.355Z,10.23
2023-05-20T10:39:17.387Z,9.60
2023-05-20T10:41:47.099Z,9.50
2023-05-20T10:44:14.849Z,9.03
2023-05-20T10:49:24.149Z,9.33
2023-05-20T10:51:55.554Z,8.67
2023-05-20T10:54:24.113Z,9.43
2023-05-20T10:56:54.391Z,9.30
2023-05-20T10:59:23.678Z,10.07
2023-05-20T11:01:51.570Z,9.20
2023-05-20T11:04:19.731Z,8.90
2023-05-20T11:06:56.037Z,9.70
2023-05-20T11:09:23.906Z,9.67
2023-05-20T11:11:51.951Z,10.90
2023-05-20T11:14:22.702Z,9.63
2023-05-20T11:16:55.478Z,9.87
2023-05-20T11:19:25.232Z,9.57
2023-05-20T11:21:53.347Z,10.23
2023-05-20T11:24:27.302Z,9.50
2023-05-20T11:26:55.592Z,9.70
2023-05-20T11:29:31.667Z,10.13
2023-05-20T11:32:00.639Z,9.77
2023-05-20T11:34:34.351Z,9.53
2023-05-20T11:37:02.531Z,10.10
2023-05-20T11:39:31.022Z,10.20
2023-05-20T11:41:59.603Z,9.67
2023-05-20T11:44:28.726Z,10.00
2023-05-20T11:47:00.850Z,10.03
2023-05-20T11:49:28.979Z,9.20
2023-05-20T11:51:57.759Z,9.90
2023-05-20T11:54:26.445Z,12.23
2023-05-20T11:56:55.231Z,10.43
2023-05-20T11:59:25.393Z,10.87
2023-05-20T12:01:55.024Z,14.00
2023-05-20T12:04:23.171Z,10.20
2023-05-20T12:06:51.098Z,9.93
2023-05-20T12:09:19.078Z,10.70
2023-05-20T12:11:46.788Z,9.90
2023-05-20T12:14:14.765Z,11.90
2023-05-20T12:16:42.748Z,9.17
2023-05-20T12:19:11.931Z,10.37
2023-05-20T12:21:40.042Z,8.43
2023-05-20T12:24:08.662Z,9.43
2023-05-20T12:26:36.893Z,9.70
2023-05-20T12:29:05.126Z,9.70
2023-05-20T12:31:34.819Z,9.70
2023-05-20T12:34:03.117Z,10.67
2023-05-20T12:36:33.884Z,11.37
2023-05-20T12:39:01.625Z,9.90
2023-05-20T12:41:29.400Z,9.80
2023-05-20T12:43:57.598Z,9.73
2023-05-20T12:46:25.621Z,9.43
2023-05-20T12:48:53.567Z,9.50
2023-05-20T12:51:21.402Z,9.80
2023-05-20T12:53:51.497Z,11.63
2023-05-20T12:56:19.955Z,9.63
2023-05-20T12:58:49.770Z,9.60
2023-05-20T13:01:17.657Z,9.37
2023-05-20T13:03:45.529Z,10.23
2023-05-20T13:06:13.599Z,9.33
2023-05-20T13:08:41.672Z,9.13
2023-05-20T13:11:10.902Z,9.83
2023-05-20T13:13:42.685Z,9.20
2023-05-20T13:16:12.001Z,8.90
2023-05-20T13:18:40.212Z,9.40
2023-05-20T13:21:08.433Z,9.13
2023-05-20T13:23:36.968Z,8.80
2023-05-20T13:26:04.995Z,9.40
2023-05-20T13:28:34.619Z,9.80
2023-05-20T13:31:03.397Z,8.60
2023-05-20T13:33:31.124Z,9.90
2023-05-20T13:36:00.364Z,8.60
2023-05-20T13:38:28.462Z,8.97
2023-05-20T13:40:59.205Z,8.70
2023-05-20T13:43:28.844Z,9.70
2023-05-20T13:45:58.737Z,9.47
2023-05-20T13:48:26.626Z,8.63
2023-05-20T13:50:54.523Z,9.03
2023-05-20T13:53:22.490Z,9.07
2023-05-20T13:55:50.240Z,8.57
2023-05-20T13:58:18.240Z,9.10
2023-05-20T14:00:46.144Z,9.00
2023-05-20T14:03:15.820Z,9.50
2023-05-20T14:05:43.996Z,8.40
2023-05-20T14:08:11.786Z,8.77
2023-05-20T14:10:39.782Z,8.33
2023-05-20T14:13:10.647Z,8.97
2023-05-20T14:15:38.497Z,9.30
2023-05-20T14:18:06.260Z,11.03
2023-05-20T14:20:36.103Z,9.17
2023-05-20T14:23:04.049Z,9.80
2023-05-20T14:25:31.960Z,9.60
2023-05-20T14:27:59.945Z,8.70
2023-05-20T14:30:27.713Z,8.30
2023-05-20T14:32:55.623Z,9.17
2023-05-20T14:35:23.474Z,8.57
2023-05-20T14:37:53.456Z,8.50
2023-05-20T14:40:21.559Z,8.50
2023-05-20T14:42:49.787Z,8.90
2023-05-20T14:45:18.211Z,8.67
2023-05-20T14:47:46.103Z,8.23
2023-05-20T14:50:14.466Z,7.97
2023-05-20T14:52:42.267Z,7.43
2023-05-20T14:55:12.525Z,7.83
2023-05-20T14:57:40.776Z,7.60
2023-05-20T15:00:09.116Z,8.00
2023-05-20T15:02:37.348Z,7.60
2023-05-20T15:05:05.792Z,8.17
2023-05-20T15:07:33.555Z,9.70
2023-05-20T15:10:01.379Z,7.50
2023-05-20T15:12:31.133Z,8.80
2023-05-20T15:14:58.970Z,7.90
2023-05-20T15:17:27.068Z,7.77
2023-05-20T15:19:54.987Z,8.20
2023-05-20T15:22:22.690Z,8.20
2023-05-20T15:24:52.038Z,7.60
2023-05-20T15:27:21.017Z,7.73
2023-05-20T15:29:50.126Z,7.67
2023-05-20T15:32:19.818Z,7.57
2023-05-20T15:34:49.675Z,7.30
2023-05-20T15:37:18.003Z,7.70
2023-05-20T15:39:46.307Z,8.17
2023-05-20T15:42:18.791Z,8.37
2023-05-20T15:44:46.951Z,7.40
2023-05-20T15:47:15.994Z,7.20
2023-05-20T15:49:44.408Z,7.40
2023-05-20T15:52:12.226Z,6.80
2023-05-20T15:54:40.096Z,7.70
2023-05-20T15:57:08.046Z,7.27
2023-05-20T15:59:36.022Z,8.37
2023-05-20T16:02:04.033Z,7.20
2023-05-20T16:04:33.912Z,7.40
2023-05-20T16:07:01.856Z,7.80
2023-05-20T16:09:30.138Z,7.97
2023-05-20T16:11:58.316Z,7.90
2023-05-20T16:14:26.105Z,9.63
2023-05-20T16:16:53.809Z,18.07
2023-05-20T16:19:23.364Z,12.60
2023-05-20T16:21:52.531Z,24.17
2023-05-20T16:24:20.642Z,7.97
2023-05-20T16:26:48.886Z,7.80
2023-05-20T16:29:16.867Z,8.57
2023-05-20T16:31:46.718Z,9.07
2023-05-20T16:34:16.014Z,8.83
2023-05-20T16:36:45.000Z,11.20
2023-05-20T16:39:14.719Z,7.23
2023-05-20T16:41:43.121Z,10.00
2023-05-20T16:44:11.178Z,6.70
2023-05-20T16:46:38.922Z,9.23
2023-05-20T16:49:07.087Z,10.20
2023-05-20T16:51:34.812Z,7.80
2023-05-20T16:54:03.748Z,7.57
2023-05-20T16:56:33.728Z,8.37
2023-05-20T16:59:02.823Z,7.10
2023-05-20T17:01:30.627Z,8.07
2023-05-20T17:03:58.610Z,8.27
2023-05-20T17:06:26.809Z,8.33
2023-05-20T17:08:55.113Z,8.80
2023-05-20T17:11:23.086Z,8.13
2023-05-20T17:13:52.792Z,7.07
2023-05-20T17:16:20.694Z,8.23
2023-05-20T17:18:49.225Z,8.37
2023-05-20T17:21:20.494Z,8.50
2023-05-20T17:23:48.484Z,8.43
2023-05-20T17:26:16.590Z,7.97
2023-05-20T17:28:44.634Z,8.53
2023-05-20T17:31:13.939Z,8.50
2023-05-20T17:33:42.537Z,8.90
2023-05-20T17:36:10.696Z,8.13
2023-05-20T17:38:38.468Z,8.27
2023-05-20T17:41:06.460Z,8.87
2023-05-20T17:43:35.126Z,10.40
2023-05-20T17:46:02.962Z,9.37
2023-05-20T17:48:32.906Z,10.10
2023-05-20T17:51:01.422Z,9.67
2023-05-20T17:53:29.573Z,8.63
2023-05-20T17:55:57.466Z,8.93
2023-05-20T17:58:27.017Z,8.80
2023-05-20T18:00:55.218Z,9.00
2023-05-20T18:03:23.268Z,8.57
2023-05-20T18:05:55.110Z,8.60
2023-05-20T18:08:25.275Z,8.17
2023-05-20T18:10:53.370Z,9.00
2023-05-20T18:13:21.086Z,8.30
2023-05-20T18:15:49.137Z,12.13
2023-05-20T18:18:17.455Z,8.53
2023-05-20T18:20:45.200Z,9.57
2023-05-20T18:23:14.425Z,9.27
2023-05-20T18:25:42.900Z,9.60
2023-05-20T18:28:11.303Z,8.80
2023-05-20T18:30:39.320Z,9.03
2023-05-20T18:33:07.365Z,14.20
2023-05-20T18:35:35.248Z,32.17
2023-05-20T18:38:03.088Z,24.70
2023-05-20T18:40:32.192Z,17.93
2023-05-20T18:43:00.456Z,19.13
2023-05-20T18:45:28.209Z,10.23
2023-05-20T18:47:59.465Z,9.73
2023-05-20T18:50:27.544Z,10.97
2023-05-20T18:52:55.305Z,10.30
2023-05-20T18:55:23.857Z,10.07
2023-05-20T18:57:52.944Z,9.53
2023-05-20T19:00:21.171Z,8.60
2023-05-20T19:02:49.523Z,9.17
2023-05-20T19:05:17.369Z,9.67
2023-05-20T19:07:45.260Z,9.00
2023-05-20T19:10:13.233Z,10.27
2023-05-20T19:12:41.401Z,10.07
2023-05-20T19:15:11.526Z,10.00
2023-05-20T19:17:39.441Z,9.63
2023-05-20T19:20:08.193Z,9.93
2023-05-20T19:22:36.556Z,9.13
2023-05-20T19:25:05.209Z,10.40
2023-05-20T19:27:34.422Z,9.63
2023-05-20T19:30:02.393Z,10.50
2023-05-20T19:32:31.877Z,9.43
2023-05-20T19:35:00.881Z,10.70
2023-05-20T19:37:28.753Z,10.63
2023-05-20T19:39:56.436Z,10.10
2023-05-20T19:42:24.147Z,9.27
2023-05-20T19:44:51.967Z,9.43
2023-05-20T19:47:19.975Z,9.73
2023-05-20T19:49:49.161Z,10.50
2023-05-20T19:52:17.228Z,9.80
2023-05-20T19:54:44.930Z,10.20
2023-05-20T19:57:13.028Z,9.23
2023-05-20T19:59:41.078Z,9.93
2023-05-20T20:02:09.325Z,9.43
2023-05-20T20:04:37.209Z,11.10
2023-05-20T20:07:08.363Z,10.10
2023-05-20T20:09:36.197Z,10.40
2023-05-20T20:12:04.253Z,11.60
2023-05-20T20:14:32.393Z,11.30
2023-05-20T20:17:00.235Z,12.50
2023-05-20T20:19:28.364Z,11.93
2023-05-20T20:21:58.006Z,13.30
2023-05-20T20:24:27.790Z,13.63
2023-05-20T20:26:56.909Z,13.60
2023-05-20T20:29:25.023Z,13.53
2023-05-20T20:31:53.537Z,13.27
2023-05-20T20:34:21.935Z,13.20
2023-05-20T20:36:51.136Z,14.40
2023-05-20T20:39:21.088Z,14.30
2023-05-20T20:41:50.763Z,14.07
2023-05-20T20:44:21.151Z,15.20
2023-05-20T20:46:50.766Z,15.37
2023-05-20T20:49:18.795Z,14.30
2023-05-20T20:51:46.745Z,14.57
2023-05-20T20:54:15.295Z,15.30
2023-05-20T20:56:45.351Z,14.40
2023-05-20T20:59:15.719Z,14.87
2023-05-20T21:01:44.721Z,13.93
2023-05-20T21:04:13.923Z,13.67
2023-05-20T21:06:46.083Z,13.63
2023-05-20T21:09:14.086Z,15.20
2023-05-20T21:11:42.852Z,14.00
2023-05-20T21:14:11.827Z,14.70
2023-05-20T21:16:42.104Z,15.50
2023-05-20T21:19:10.480Z,14.83
2023-05-20T21:21:38.343Z,15.13
2023-05-20T21:24:06.504Z,15.03
2023-05-20T21:26:34.249Z,14.60
2023-05-20T21:29:02.366Z,14.97
2023-05-20T21:31:30.168Z,15.77
2023-05-20T21:33:59.533Z,15.50
2023-05-20T21:36:27.692Z,16.20
2023-05-20T21:38:55.495Z,16.70
2023-05-20T21:41:23.378Z,16.60
2023-05-20T21:43:51.798Z,16.27
2023-05-20T21:46:19.601Z,15.60
2023-05-20T21:48:47.641Z,16.37
2023-05-20T21:51:16.906Z,15.50
2023-05-20T21:53:44.934Z,15.33
2023-05-20T21:56:12.915Z,15.97
2023-05-20T21:58:41.824Z,15.33
2023-05-20T22:01:10.383Z,15.00
2023-05-20T22:03:40.235Z,17.07
2023-05-20T22:06:08.147Z,14.43
2023-05-20T22:08:37.333Z,15.70
2023-05-20T22:11:07.901Z,15.83
2023-05-20T22:13:42.473Z,16.40
2023-05-20T22:16:11.218Z,16.90
2023-05-20T22:18:39.686Z,16.43
2023-05-20T22:21:08.026Z,17.70
2023-05-20T22:23:37.279Z,16.20
2023-05-20T22:26:06.269Z,15.87
2023-05-20T22:28:34.376Z,16.90
2023-05-20T22:31:02.190Z,16.73
2023-05-20T22:36:41.644Z,16.63
2023-05-20T22:39:14.562Z,17.50
2023-05-20T22:41:42.365Z,18.23
2023-05-20T22:44:10.133Z,18.47
2023-05-20T22:46:38.390Z,17.90
2023-05-20T22:49:06.258Z,18.30
2023-05-20T22:51:35.091Z,18.37
2023-05-20T22:54:03.166Z,17.70
2023-05-20T22:56:32.517Z,19.27
2023-05-20T22:59:00.689Z,19.23
2023-05-20T23:01:29.214Z,19.77
2023-05-20T23:03:57.061Z,19.00
2023-05-20T23:06:25.462Z,19.00
2023-05-20T23:08:53.366Z,20.07
2023-05-20T23:11:21.500Z,19.40
2023-05-20T23:13:52.333Z,19.77
2023-05-20T23:16:20.315Z,19.53
2023-05-20T23:18:48.470Z,19.20
2023-05-20T23:21:16.990Z,19.53
2023-05-20T23:23:44.732Z,20.23
2023-05-20T23:26:12.559Z,19.80
2023-05-20T23:28:40.660Z,20.50
2023-05-20T23:31:10.255Z,20.57
2023-05-20T23:33:38.135Z,20.40
2023-05-20T23:36:09.662Z,20.40
2023-05-20T23:38:37.453Z,20.80
2023-05-20T23:41:05.479Z,21.10
2023-05-20T23:43:33.752Z,20.50
2023-05-20T23:46:01.893Z,20.67
2023-05-20T23:48:31.156Z,20.10
2023-05-20T23:50:59.430Z,20.87
2023-05-20T23:53:27.603Z,21.20
2023-05-20T23:55:55.296Z,21.30
2023-05-20T23:58:23.802Z,20.70
